FYWW

Windhoek, Town MET Airport

Windhoek, Namibia
METAR FYWW 170800Z AUTO 29002KT //// // ////// 32/01 Q1024
Observed Flight Rules
Nov-17 @ 08:00 UTC (58 minutes ago)
Wind
290° at 2 knots
Temperatures Readings
Current 32°C / 90°F
Dewpoint 1°C / 34°F
Humidity 14%
Altimeter 30.24" Hg
Pressure 1024 hPa
Elevation 1725
METAR FYWW 170800Z AUTO 29002KT //// // ////// 32/01 Q1024
Observed Flight Rules
Nov-17 @ 08:00 UTC
(58 minutes ago)
Wind
290° at 2 knots
Temperature Dewpoint
32°C / 90°F 1°C / 34°F
Humidity Altimeter Pressure
14% 30.24" Hg 1024 hPa